Capitol Logistics 254


TNCM
Princess Juliana International Airport
St. Maarten, SX
KMIA
Miami International Airport
Miami, US

Route Details

Aircraft Information
Primary: Boeing 767-300BDSF
Backup: Not Available
Route Data
Distance: 1064nm
Sched. Duration: 3h 35m
Avg. Duration: 2h 59m (-76m)
Times Flown: 10
Recm'd Route: PJM B520 STT RTE6 SJU ACONY Y308 FOWEE FLIPR6
Planned Altitude: 30,000ft
Origin Wx: TNCM 251000Z 05011KT 9999 FEW018 28/24 Q1016 NOSIG
Dest. Wx: KMIA 250953Z 09004KT 10SM -RA FEW018 FEW033 BKN075 OVC130 24/24 A2985 RMK AO2 LTG DSNT E SLP109 P0002 T02440239 $
Notes:

Financial History
Total Freight: 972,829lbs
Average Load: 97,283lbs/flt
Fuel Used: 298,378lbs
Avg. Fuel Used: 29,838lbs/flt
Fuel Expense: $238,702
Avg. Fuel Expense: $23,870
Avg. Fuel Cost: $0.80/lbs
Total Gross Income: $1,270,512
Pilot Pay: $2,250
Total Expenses: $137,735
Total Revenue: $887,351
Average Revenue: $127,051.25